sensor_id;sensor_type;location;lat;lon;timestamp;P1;durP1;ratioP1;P2;durP2;ratioP2
37141;SDS011;23041;49.816;20.092;2022-08-21T00:01:22;10.82;;;8.65;;
37141;SDS011;23041;49.816;20.092;2022-08-21T00:03:52;9.88;;;7.67;;
37141;SDS011;23041;49.816;20.092;2022-08-21T00:06:20;10.63;;;8.18;;
37141;SDS011;23041;49.816;20.092;2022-08-21T00:08:47;9.45;;;7.60;;
37141;SDS011;23041;49.816;20.092;2022-08-21T00:11:13;10.15;;;9.00;;
37141;SDS011;23041;49.816;20.092;2022-08-21T00:13:40;10.80;;;7.80;;
37141;SDS011;23041;49.816;20.092;2022-08-21T00:16:09;8.75;;;7.92;;
37141;SDS011;23041;49.816;20.092;2022-08-21T00:18:36;9.38;;;8.40;;
37141;SDS011;23041;49.816;20.092;2022-08-21T00:21:03;8.53;;;7.72;;
37141;SDS011;23041;49.816;20.092;2022-08-21T00:23:33;9.57;;;8.57;;
37141;SDS011;23041;49.816;20.092;2022-08-21T00:26:01;9.90;;;8.30;;
37141;SDS011;23041;49.816;20.092;2022-08-21T00:28:27;8.98;;;8.18;;
37141;SDS011;23041;49.816;20.092;2022-08-21T00:30:54;11.43;;;8.00;;
37141;SDS011;23041;49.816;20.092;2022-08-21T00:33:22;11.63;;;8.78;;
37141;SDS011;23041;49.816;20.092;2022-08-21T00:35:50;9.03;;;8.18;;
37141;SDS011;23041;49.816;20.092;2022-08-21T00:38:17;10.10;;;8.60;;
37141;SDS011;23041;49.816;20.092;2022-08-21T00:40:46;9.68;;;8.78;;
37141;SDS011;23041;49.816;20.092;2022-08-21T00:43:21;8.55;;;7.75;;
37141;SDS011;23041;49.816;20.092;2022-08-21T00:45:50;9.93;;;8.23;;
37141;SDS011;23041;49.816;20.092;2022-08-21T00:48:17;8.78;;;7.87;;
37141;SDS011;23041;49.816;20.092;2022-08-21T00:50:44;9.13;;;8.33;;
37141;SDS011;23041;49.816;20.092;2022-08-21T00:53:18;10.50;;;9.20;;
37141;SDS011;23041;49.816;20.092;2022-08-21T00:55:45;9.90;;;9.08;;
37141;SDS011;23041;49.816;20.092;2022-08-21T00:58:13;10.32;;;8.65;;
37141;SDS011;23041;49.816;20.092;2022-08-21T01:00:41;8.60;;;7.78;;
37141;SDS011;23041;49.816;20.092;2022-08-21T01:03:12;10.55;;;8.60;;
37141;SDS011;23041;49.816;20.092;2022-08-21T01:05:42;9.28;;;8.48;;
37141;SDS011;23041;49.816;20.092;2022-08-21T01:08:09;10.00;;;9.10;;
37141;SDS011;23041;49.816;20.092;2022-08-21T01:10:37;8.88;;;8.08;;
37141;SDS011;23041;49.816;20.092;2022-08-21T01:13:05;9.05;;;8.15;;
37141;SDS011;23041;49.816;20.092;2022-08-21T01:15:35;11.22;;;8.23;;
37141;SDS011;23041;49.816;20.092;2022-08-21T01:18:06;9.50;;;8.35;;
37141;SDS011;23041;49.816;20.092;2022-08-21T01:20:34;10.23;;;8.45;;
37141;SDS011;23041;49.816;20.092;2022-08-21T01:23:03;9.78;;;8.78;;
37141;SDS011;23041;49.816;20.092;2022-08-21T01:25:31;9.60;;;8.58;;
37141;SDS011;23041;49.816;20.092;2022-08-21T01:28:02;10.88;;;8.75;;
37141;SDS011;23041;49.816;20.092;2022-08-21T01:30:36;11.05;;;8.10;;
37141;SDS011;23041;49.816;20.092;2022-08-21T01:33:03;9.53;;;8.48;;
37141;SDS011;23041;49.816;20.092;2022-08-21T01:35:30;11.20;;;8.13;;
37141;SDS011;23041;49.816;20.092;2022-08-21T01:37:57;10.35;;;8.15;;
37141;SDS011;23041;49.816;20.092;2022-08-21T01:40:23;11.97;;;8.75;;
37141;SDS011;23041;49.816;20.092;2022-08-21T01:42:50;9.83;;;8.93;;
37141;SDS011;23041;49.816;20.092;2022-08-21T01:45:16;9.45;;;8.55;;
37141;SDS011;23041;49.816;20.092;2022-08-21T01:47:43;9.45;;;8.65;;
37141;SDS011;23041;49.816;20.092;2022-08-21T01:50:17;9.93;;;8.13;;
37141;SDS011;23041;49.816;20.092;2022-08-21T01:52:41;9.15;;;8.30;;
37141;SDS011;23041;49.816;20.092;2022-08-21T01:55:08;8.33;;;7.53;;
37141;SDS011;23041;49.816;20.092;2022-08-21T01:57:36;8.55;;;7.80;;
37141;SDS011;23041;49.816;20.092;2022-08-21T02:00:05;9.50;;;8.28;;
37141;SDS011;23041;49.816;20.092;2022-08-21T02:02:36;10.08;;;9.05;;
37141;SDS011;23041;49.816;20.092;2022-08-21T02:05:04;11.20;;;10.13;;
37141;SDS011;23041;49.816;20.092;2022-08-21T02:07:41;11.63;;;10.25;;
37141;SDS011;23041;49.816;20.092;2022-08-21T02:10:15;9.10;;;8.03;;
37141;SDS011;23041;49.816;20.092;2022-08-21T02:12:48;8.53;;;7.72;;
37141;SDS011;23041;49.816;20.092;2022-08-21T02:15:15;8.13;;;7.35;;
37141;SDS011;23041;49.816;20.092;2022-08-21T02:17:47;9.03;;;8.13;;
37141;SDS011;23041;49.816;20.092;2022-08-21T02:20:20;9.68;;;8.43;;
37141;SDS011;23041;49.816;20.092;2022-08-21T02:22:49;10.50;;;8.65;;
37141;SDS011;23041;49.816;20.092;2022-08-21T02:25:16;9.75;;;8.68;;
37141;SDS011;23041;49.816;20.092;2022-08-21T02:30:15;9.55;;;8.65;;
37141;SDS011;23041;49.816;20.092;2022-08-21T02:32:47;8.80;;;7.97;;
37141;SDS011;23041;49.816;20.092;2022-08-21T02:35:14;9.58;;;8.68;;
37141;SDS011;23041;49.816;20.092;2022-08-21T02:37:53;9.43;;;8.63;;
37141;SDS011;23041;49.816;20.092;2022-08-21T02:40:27;9.40;;;8.60;;
37141;SDS011;23041;49.816;20.092;2022-08-21T02:42:58;11.10;;;8.58;;
37141;SDS011;23041;49.816;20.092;2022-08-21T02:45:26;8.78;;;7.92;;
37141;SDS011;23041;49.816;20.092;2022-08-21T02:47:55;9.78;;;7.35;;
37141;SDS011;23041;49.816;20.092;2022-08-21T02:50:26;8.15;;;7.20;;
37141;SDS011;23041;49.816;20.092;2022-08-21T02:52:56;9.48;;;8.48;;
37141;SDS011;23041;49.816;20.092;2022-08-21T02:55:24;9.60;;;7.85;;
37141;SDS011;23041;49.816;20.092;2022-08-21T02:57:53;9.23;;;8.50;;
37141;SDS011;23041;49.816;20.092;2022-08-21T03:00:22;9.23;;;8.28;;
37141;SDS011;23041;49.816;20.092;2022-08-21T03:02:50;8.93;;;8.13;;
37141;SDS011;23041;49.816;20.092;2022-08-21T03:05:21;9.48;;;7.78;;
37141;SDS011;23041;49.816;20.092;2022-08-21T03:07:48;9.18;;;8.30;;
37141;SDS011;23041;49.816;20.092;2022-08-21T03:10:17;10.48;;;8.20;;
37141;SDS011;23041;49.816;20.092;2022-08-21T03:12:46;9.35;;;8.45;;
37141;SDS011;23041;49.816;20.092;2022-08-21T03:15:15;10.08;;;8.78;;
37141;SDS011;23041;49.816;20.092;2022-08-21T03:17:44;9.08;;;8.18;;
37141;SDS011;23041;49.816;20.092;2022-08-21T03:20:13;9.00;;;8.20;;
37141;SDS011;23041;49.816;20.092;2022-08-21T03:22:42;8.68;;;7.87;;
37141;SDS011;23041;49.816;20.092;2022-08-21T03:25:09;8.88;;;7.33;;
37141;SDS011;23041;49.816;20.092;2022-08-21T03:27:36;8.95;;;8.10;;
37141;SDS011;23041;49.816;20.092;2022-08-21T03:30:04;11.65;;;8.00;;
37141;SDS011;23041;49.816;20.092;2022-08-21T03:32:34;9.08;;;8.28;;
37141;SDS011;23041;49.816;20.092;2022-08-21T03:35:01;10.40;;;9.38;;
37141;SDS011;23041;49.816;20.092;2022-08-21T03:37:29;9.45;;;8.43;;
37141;SDS011;23041;49.816;20.092;2022-08-21T03:39:56;9.15;;;7.85;;
37141;SDS011;23041;49.816;20.092;2022-08-21T03:42:26;9.20;;;7.78;;
37141;SDS011;23041;49.816;20.092;2022-08-21T03:44:54;12.07;;;8.20;;
37141;SDS011;23041;49.816;20.092;2022-08-21T03:47:21;9.75;;;8.85;;
37141;SDS011;23041;49.816;20.092;2022-08-21T03:49:48;10.30;;;8.55;;
37141;SDS011;23041;49.816;20.092;2022-08-21T03:52:14;9.45;;;8.55;;
37141;SDS011;23041;49.816;20.092;2022-08-21T03:54:42;10.32;;;8.05;;
37141;SDS011;23041;49.816;20.092;2022-08-21T03:57:10;9.35;;;8.15;;
37141;SDS011;23041;49.816;20.092;2022-08-21T03:59:36;8.88;;;7.60;;
37141;SDS011;23041;49.816;20.092;2022-08-21T04:02:05;10.10;;;8.48;;
37141;SDS011;23041;49.816;20.092;2022-08-21T04:04:33;10.10;;;8.83;;
37141;SDS011;23041;49.816;20.092;2022-08-21T04:07:00;10.38;;;9.38;;
37141;SDS011;23041;49.816;20.092;2022-08-21T04:09:27;9.90;;;9.03;;
37141;SDS011;23041;49.816;20.092;2022-08-21T04:11:55;9.28;;;8.38;;
37141;SDS011;23041;49.816;20.092;2022-08-21T04:14:22;9.20;;;8.28;;
37141;SDS011;23041;49.816;20.092;2022-08-21T04:16:49;10.85;;;8.35;;
37141;SDS011;23041;49.816;20.092;2022-08-21T04:19:15;10.93;;;8.00;;
37141;SDS011;23041;49.816;20.092;2022-08-21T04:21:42;10.32;;;9.25;;
37141;SDS011;23041;49.816;20.092;2022-08-21T04:24:09;10.45;;;9.43;;
37141;SDS011;23041;49.816;20.092;2022-08-21T04:26:37;10.72;;;9.75;;
37141;SDS011;23041;49.816;20.092;2022-08-21T04:31:33;12.60;;;8.53;;
37141;SDS011;23041;49.816;20.092;2022-08-21T04:34:03;8.48;;;7.67;;
37141;SDS011;23041;49.816;20.092;2022-08-21T04:36:31;9.80;;;8.80;;
37141;SDS011;23041;49.816;20.092;2022-08-21T04:38:59;11.25;;;8.85;;
37141;SDS011;23041;49.816;20.092;2022-08-21T04:41:26;12.58;;;10.23;;
37141;SDS011;23041;49.816;20.092;2022-08-21T04:43:53;11.48;;;10.15;;
37141;SDS011;23041;49.816;20.092;2022-08-21T04:46:21;10.18;;;9.28;;
37141;SDS011;23041;49.816;20.092;2022-08-21T04:48:49;10.15;;;9.15;;
37141;SDS011;23041;49.816;20.092;2022-08-21T04:51:17;11.55;;;9.85;;
37141;SDS011;23041;49.816;20.092;2022-08-21T04:54:35;12.00;;;10.78;;
37141;SDS011;23041;49.816;20.092;2022-08-21T04:56:28;10.95;;;9.90;;
37141;SDS011;23041;49.816;20.092;2022-08-21T04:59:11;16.25;;;11.35;;
37141;SDS011;23041;49.816;20.092;2022-08-21T05:01:42;12.23;;;11.18;;
37141;SDS011;23041;49.816;20.092;2022-08-21T05:04:10;19.37;;;13.15;;
37141;SDS011;23041;49.816;20.092;2022-08-21T05:06:40;14.68;;;11.22;;
37141;SDS011;23041;49.816;20.092;2022-08-21T05:09:09;14.43;;;11.75;;
37141;SDS011;23041;49.816;20.092;2022-08-21T05:11:40;14.55;;;11.93;;
37141;SDS011;23041;49.816;20.092;2022-08-21T05:14:08;15.72;;;11.83;;
37141;SDS011;23041;49.816;20.092;2022-08-21T05:16:37;20.10;;;13.23;;
37141;SDS011;23041;49.816;20.092;2022-08-21T05:19:08;14.43;;;12.45;;
37141;SDS011;23041;49.816;20.092;2022-08-21T05:21:33;15.37;;;11.80;;
37141;SDS011;23041;49.816;20.092;2022-08-21T05:24:02;14.38;;;12.20;;
37141;SDS011;23041;49.816;20.092;2022-08-21T05:26:30;20.32;;;12.63;;
37141;SDS011;23041;49.816;20.092;2022-08-21T05:28:56;17.15;;;12.53;;
37141;SDS011;23041;49.816;20.092;2022-08-21T05:31:23;16.05;;;14.23;;
37141;SDS011;23041;49.816;20.092;2022-08-21T05:33:49;28.05;;;18.67;;
37141;SDS011;23041;49.816;20.092;2022-08-21T05:36:16;25.17;;;16.67;;
37141;SDS011;23041;49.816;20.092;2022-08-21T05:38:44;25.88;;;18.95;;
37141;SDS011;23041;49.816;20.092;2022-08-21T05:41:11;25.45;;;18.30;;
37141;SDS011;23041;49.816;20.092;2022-08-21T05:43:37;23.83;;;18.70;;
37141;SDS011;23041;49.816;20.092;2022-08-21T05:46:04;24.07;;;18.90;;
37141;SDS011;23041;49.816;20.092;2022-08-21T05:48:32;34.20;;;20.32;;
37141;SDS011;23041;49.816;20.092;2022-08-21T05:51:09;28.00;;;19.43;;
37141;SDS011;23041;49.816;20.092;2022-08-21T05:53:36;26.27;;;18.42;;
37141;SDS011;23041;49.816;20.092;2022-08-21T05:56:03;22.07;;;16.70;;
37141;SDS011;23041;49.816;20.092;2022-08-21T05:58:31;24.72;;;16.75;;
37141;SDS011;23041;49.816;20.092;2022-08-21T06:00:59;25.10;;;17.48;;
37141;SDS011;23041;49.816;20.092;2022-08-21T06:03:28;30.40;;;20.17;;
37141;SDS011;23041;49.816;20.092;2022-08-21T06:06:01;31.90;;;19.62;;
37141;SDS011;23041;49.816;20.092;2022-08-21T06:08:28;29.05;;;20.35;;
37141;SDS011;23041;49.816;20.092;2022-08-21T06:10:55;28.52;;;19.70;;
37141;SDS011;23041;49.816;20.092;2022-08-21T06:13:24;28.77;;;21.05;;
37141;SDS011;23041;49.816;20.092;2022-08-21T06:16:00;27.25;;;19.00;;
37141;SDS011;23041;49.816;20.092;2022-08-21T06:18:35;24.92;;;19.05;;
37141;SDS011;23041;49.816;20.092;2022-08-21T06:21:03;25.30;;;19.10;;
37141;SDS011;23041;49.816;20.092;2022-08-21T06:23:30;28.50;;;19.90;;
37141;SDS011;23041;49.816;20.092;2022-08-21T06:25:59;32.08;;;21.48;;
37141;SDS011;23041;49.816;20.092;2022-08-21T06:28:27;34.37;;;21.57;;
37141;SDS011;23041;49.816;20.092;2022-08-21T06:30:54;28.05;;;19.40;;
37141;SDS011;23041;49.816;20.092;2022-08-21T06:33:20;21.85;;;17.55;;
37141;SDS011;23041;49.816;20.092;2022-08-21T06:35:47;27.93;;;20.05;;
37141;SDS011;23041;49.816;20.092;2022-08-21T06:38:13;29.45;;;19.62;;
37141;SDS011;23041;49.816;20.092;2022-08-21T06:40:40;26.35;;;19.70;;
37141;SDS011;23041;49.816;20.092;2022-08-21T06:43:12;27.67;;;19.40;;
37141;SDS011;23041;49.816;20.092;2022-08-21T06:45:38;27.42;;;19.85;;
37141;SDS011;23041;49.816;20.092;2022-08-21T06:48:05;25.57;;;19.82;;
37141;SDS011;23041;49.816;20.092;2022-08-21T06:50:35;24.72;;;18.77;;
37141;SDS011;23041;49.816;20.092;2022-08-21T06:53:07;33.28;;;19.45;;
37141;SDS011;23041;49.816;20.092;2022-08-21T06:55:35;27.55;;;19.65;;
37141;SDS011;23041;49.816;20.092;2022-08-21T07:00:29;29.82;;;20.20;;
37141;SDS011;23041;49.816;20.092;2022-08-21T07:02:57;26.37;;;20.43;;
37141;SDS011;23041;49.816;20.092;2022-08-21T07:05:25;25.00;;;19.17;;
37141;SDS011;23041;49.816;20.092;2022-08-21T07:07:54;31.77;;;20.23;;
37141;SDS011;23041;49.816;20.092;2022-08-21T07:10:22;27.27;;;20.25;;
37141;SDS011;23041;49.816;20.092;2022-08-21T07:12:51;25.92;;;19.45;;
37141;SDS011;23041;49.816;20.092;2022-08-21T07:15:20;21.73;;;17.40;;
37141;SDS011;23041;49.816;20.092;2022-08-21T07:17:46;22.73;;;17.67;;
37141;SDS011;23041;49.816;20.092;2022-08-21T07:20:13;26.35;;;19.23;;
37141;SDS011;23041;49.816;20.092;2022-08-21T07:22:39;21.52;;;18.73;;
37141;SDS011;23041;49.816;20.092;2022-08-21T07:25:07;25.43;;;19.25;;
37141;SDS011;23041;49.816;20.092;2022-08-21T07:27:34;23.18;;;18.52;;
37141;SDS011;23041;49.816;20.092;2022-08-21T07:30:00;28.77;;;19.87;;
37141;SDS011;23041;49.816;20.092;2022-08-21T07:32:27;23.55;;;19.67;;
37141;SDS011;23041;49.816;20.092;2022-08-21T07:34:54;28.77;;;20.02;;
37141;SDS011;23041;49.816;20.092;2022-08-21T07:37:21;26.15;;;19.30;;
37141;SDS011;23041;49.816;20.092;2022-08-21T07:39:48;28.50;;;19.17;;
37141;SDS011;23041;49.816;20.092;2022-08-21T07:42:14;23.95;;;20.08;;
37141;SDS011;23041;49.816;20.092;2022-08-21T07:44:42;27.22;;;18.87;;
37141;SDS011;23041;49.816;20.092;2022-08-21T07:47:09;22.87;;;18.17;;
37141;SDS011;23041;49.816;20.092;2022-08-21T07:49:35;20.05;;;17.70;;
37141;SDS011;23041;49.816;20.092;2022-08-21T07:52:02;21.68;;;19.12;;
37141;SDS011;23041;49.816;20.092;2022-08-21T07:54:29;26.23;;;20.37;;
37141;SDS011;23041;49.816;20.092;2022-08-21T07:56:55;24.43;;;20.35;;
37141;SDS011;23041;49.816;20.092;2022-08-21T07:59:21;24.15;;;20.02;;
37141;SDS011;23041;49.816;20.092;2022-08-21T08:01:48;25.17;;;19.37;;
37141;SDS011;23041;49.816;20.092;2022-08-21T08:04:15;26.52;;;21.02;;
37141;SDS011;23041;49.816;20.092;2022-08-21T08:06:41;25.85;;;21.70;;
37141;SDS011;23041;49.816;20.092;2022-08-21T08:09:08;25.68;;;21.12;;
37141;SDS011;23041;49.816;20.092;2022-08-21T08:11:35;32.08;;;21.60;;
37141;SDS011;23041;49.816;20.092;2022-08-21T08:14:05;36.28;;;23.87;;
37141;SDS011;23041;49.816;20.092;2022-08-21T08:16:31;31.35;;;22.62;;
37141;SDS011;23041;49.816;20.092;2022-08-21T08:18:58;30.20;;;23.55;;
37141;SDS011;23041;49.816;20.092;2022-08-21T08:21:25;34.35;;;25.92;;
37141;SDS011;23041;49.816;20.092;2022-08-21T08:23:51;34.95;;;25.37;;
37141;SDS011;23041;49.816;20.092;2022-08-21T08:26:18;34.18;;;25.68;;
37141;SDS011;23041;49.816;20.092;2022-08-21T08:28:45;34.95;;;25.60;;
37141;SDS011;23041;49.816;20.092;2022-08-21T08:31:13;38.20;;;28.42;;
37141;SDS011;23041;49.816;20.092;2022-08-21T08:33:40;38.70;;;26.48;;
37141;SDS011;23041;49.816;20.092;2022-08-21T08:36:12;37.40;;;26.27;;
37141;SDS011;23041;49.816;20.092;2022-08-21T08:38:39;42.88;;;27.82;;
37141;SDS011;23041;49.816;20.092;2022-08-21T08:41:16;42.15;;;28.17;;
37141;SDS011;23041;49.816;20.092;2022-08-21T08:43:51;43.05;;;26.95;;
37141;SDS011;23041;49.816;20.092;2022-08-21T08:46:24;41.70;;;28.65;;
37141;SDS011;23041;49.816;20.092;2022-08-21T08:51:57;46.60;;;27.40;;
37141;SDS011;23041;49.816;20.092;2022-08-21T08:54:33;41.35;;;28.62;;
37141;SDS011;23041;49.816;20.092;2022-08-21T08:57:01;39.65;;;30.23;;
37141;SDS011;23041;49.816;20.092;2022-08-21T08:59:39;38.88;;;27.35;;
37141;SDS011;23041;49.816;20.092;2022-08-21T09:02:10;45.43;;;29.70;;
37141;SDS011;23041;49.816;20.092;2022-08-21T09:04:39;41.83;;;28.47;;
37141;SDS011;23041;49.816;20.092;2022-08-21T09:15:30;43.00;;;29.45;;
37141;SDS011;23041;49.816;20.092;2022-08-21T09:20:55;43.60;;;30.68;;
37141;SDS011;23041;49.816;20.092;2022-08-21T09:23:34;47.98;;;31.07;;
37141;SDS011;23041;49.816;20.092;2022-08-21T09:26:19;49.33;;;31.62;;
37141;SDS011;23041;49.816;20.092;2022-08-21T09:28:54;48.28;;;32.00;;
37141;SDS011;23041;49.816;20.092;2022-08-21T09:31:27;54.40;;;32.50;;
37141;SDS011;23041;49.816;20.092;2022-08-21T09:34:06;47.08;;;32.48;;
37141;SDS011;23041;49.816;20.092;2022-08-21T09:39:09;58.90;;;33.67;;
37141;SDS011;23041;49.816;20.092;2022-08-21T09:41:38;55.15;;;33.50;;
37141;SDS011;23041;49.816;20.092;2022-08-21T09:44:06;49.70;;;32.83;;
37141;SDS011;23041;49.816;20.092;2022-08-21T09:46:34;49.50;;;33.13;;
37141;SDS011;23041;49.816;20.092;2022-08-21T09:49:02;54.83;;;32.13;;
37141;SDS011;23041;49.816;20.092;2022-08-21T09:51:35;46.20;;;31.03;;
37141;SDS011;23041;49.816;20.092;2022-08-21T09:59:55;50.03;;;30.43;;
37141;SDS011;23041;49.816;20.092;2022-08-21T10:02:42;43.08;;;28.90;;
37141;SDS011;23041;49.816;20.092;2022-08-21T10:05:20;44.20;;;31.48;;
37141;SDS011;23041;49.816;20.092;2022-08-21T10:07:52;46.37;;;30.10;;
37141;SDS011;23041;49.816;20.092;2022-08-21T10:16:05;45.23;;;32.13;;
37141;SDS011;23041;49.816;20.092;2022-08-21T10:18:42;47.50;;;32.13;;
37141;SDS011;23041;49.816;20.092;2022-08-21T10:23:48;50.55;;;32.15;;
37141;SDS011;23041;49.816;20.092;2022-08-21T10:26:41;40.03;;;28.73;;
37141;SDS011;23041;49.816;20.092;2022-08-21T10:30:09;40.33;;;29.95;;
37141;SDS011;23041;49.816;20.092;2022-08-21T10:32:36;37.40;;;29.57;;
37141;SDS011;23041;49.816;20.092;2022-08-21T10:35:28;42.70;;;28.02;;
37141;SDS011;23041;49.816;20.092;2022-08-21T10:55:41;46.42;;;29.95;;
37141;SDS011;23041;49.816;20.092;2022-08-21T10:58:25;37.40;;;29.65;;
37141;SDS011;23041;49.816;20.092;2022-08-21T11:01:11;47.08;;;31.95;;
37141;SDS011;23041;49.816;20.092;2022-08-21T11:03:43;46.28;;;31.65;;
37141;SDS011;23041;49.816;20.092;2022-08-21T11:06:27;45.17;;;32.00;;
37141;SDS011;23041;49.816;20.092;2022-08-21T11:09:03;40.05;;;29.65;;
37141;SDS011;23041;49.816;20.092;2022-08-21T11:11:50;33.00;;;20.95;;
37141;SDS011;23041;49.816;20.092;2022-08-21T11:15:23;20.92;;;14.90;;
37141;SDS011;23041;49.816;20.092;2022-08-21T11:17:07;17.67;;;13.83;;
37141;SDS011;23041;49.816;20.092;2022-08-21T11:19:40;16.85;;;13.18;;
37141;SDS011;23041;49.816;20.092;2022-08-21T11:22:30;13.58;;;11.65;;
37141;SDS011;23041;49.816;20.092;2022-08-21T11:25:05;11.15;;;9.95;;
37141;SDS011;23041;49.816;20.092;2022-08-21T11:27:56;10.05;;;8.50;;
37141;SDS011;23041;49.816;20.092;2022-08-21T11:30:47;8.55;;;7.50;;
37141;SDS011;23041;49.816;20.092;2022-08-21T11:33:42;7.72;;;6.92;;
37141;SDS011;23041;49.816;20.092;2022-08-21T11:37:06;6.22;;;5.62;;
37141;SDS011;23041;49.816;20.092;2022-08-21T11:39:30;5.50;;;4.97;;
37141;SDS011;23041;49.816;20.092;2022-08-21T11:45:50;4.28;;;3.87;;
37141;SDS011;23041;49.816;20.092;2022-08-21T11:50:58;3.95;;;3.65;;
37141;SDS011;23041;49.816;20.092;2022-08-21T11:53:38;3.47;;;3.17;;
37141;SDS011;23041;49.816;20.092;2022-08-21T11:56:13;3.87;;;3.58;;
37141;SDS011;23041;49.816;20.092;2022-08-21T11:58:40;3.80;;;3.50;;
37141;SDS011;23041;49.816;20.092;2022-08-21T12:01:17;4.30;;;3.42;;
37141;SDS011;23041;49.816;20.092;2022-08-21T12:04:04;3.10;;;2.90;;
37141;SDS011;23041;49.816;20.092;2022-08-21T12:06:44;3.22;;;2.92;;
37141;SDS011;23041;49.816;20.092;2022-08-21T12:12:03;4.08;;;3.65;;
37141;SDS011;23041;49.816;20.092;2022-08-21T12:14:39;3.08;;;2.80;;
37141;SDS011;23041;49.816;20.092;2022-08-21T12:17:19;4.10;;;3.12;;
37141;SDS011;23041;49.816;20.092;2022-08-21T12:19:59;2.95;;;2.75;;
37141;SDS011;23041;49.816;20.092;2022-08-21T12:22:37;4.62;;;3.22;;
37141;SDS011;23041;49.816;20.092;2022-08-21T12:25:06;4.20;;;2.92;;
37141;SDS011;23041;49.816;20.092;2022-08-21T12:28:02;3.75;;;3.42;;
37141;SDS011;23041;49.816;20.092;2022-08-21T12:32:56;4.65;;;3.00;;
37141;SDS011;23041;49.816;20.092;2022-08-21T12:35:39;3.70;;;3.40;;
37141;SDS011;23041;49.816;20.092;2022-08-21T12:38:15;3.72;;;2.92;;
37141;SDS011;23041;49.816;20.092;2022-08-21T12:43:40;3.30;;;3.10;;
37141;SDS011;23041;49.816;20.092;2022-08-21T12:46:17;8.13;;;4.12;;
37141;SDS011;23041;49.816;20.092;2022-08-21T12:48:57;3.80;;;3.40;;
37141;SDS011;23041;49.816;20.092;2022-08-21T12:51:34;3.15;;;2.95;;
37141;SDS011;23041;49.816;20.092;2022-08-21T12:54:26;3.67;;;3.37;;
37141;SDS011;23041;49.816;20.092;2022-08-21T12:57:04;3.12;;;2.83;;
37141;SDS011;23041;49.816;20.092;2022-08-21T12:59:31;3.42;;;3.12;;
37141;SDS011;23041;49.816;20.092;2022-08-21T13:02:00;3.70;;;3.33;;
37141;SDS011;23041;49.816;20.092;2022-08-21T13:04:36;2.90;;;2.70;;
37141;SDS011;23041;49.816;20.092;2022-08-21T13:07:13;3.83;;;2.98;;
37141;SDS011;23041;49.816;20.092;2022-08-21T13:09:51;3.15;;;2.95;;
37141;SDS011;23041;49.816;20.092;2022-08-21T13:12:21;4.67;;;3.05;;
37141;SDS011;23041;49.816;20.092;2022-08-21T13:14:49;6.20;;;3.50;;
37141;SDS011;23041;49.816;20.092;2022-08-21T13:17:18;4.77;;;3.60;;
37141;SDS011;23041;49.816;20.092;2022-08-21T13:25:14;4.03;;;3.70;;
37141;SDS011;23041;49.816;20.092;2022-08-21T13:27:57;4.65;;;3.67;;
37141;SDS011;23041;49.816;20.092;2022-08-21T13:30:29;3.50;;;3.10;;
37141;SDS011;23041;49.816;20.092;2022-08-21T13:32:57;4.30;;;3.67;;
37141;SDS011;23041;49.816;20.092;2022-08-21T13:35:28;3.87;;;3.52;;
37141;SDS011;23041;49.816;20.092;2022-08-21T13:37:58;3.75;;;3.35;;
37141;SDS011;23041;49.816;20.092;2022-08-21T13:40:31;4.83;;;3.40;;
37141;SDS011;23041;49.816;20.092;2022-08-21T13:43:00;3.77;;;3.47;;
37141;SDS011;23041;49.816;20.092;2022-08-21T13:45:30;4.00;;;3.70;;
37141;SDS011;23041;49.816;20.092;2022-08-21T13:48:02;5.60;;;3.58;;
37141;SDS011;23041;49.816;20.092;2022-08-21T13:50:29;4.33;;;3.90;;
37141;SDS011;23041;49.816;20.092;2022-08-21T13:53:02;5.00;;;3.70;;
37141;SDS011;23041;49.816;20.092;2022-08-21T13:55:40;5.40;;;3.80;;
37141;SDS011;23041;49.816;20.092;2022-08-21T13:58:09;5.20;;;4.40;;
37141;SDS011;23041;49.816;20.092;2022-08-21T14:00:44;4.72;;;4.35;;
37141;SDS011;23041;49.816;20.092;2022-08-21T14:03:30;4.30;;;4.00;;
37141;SDS011;23041;49.816;20.092;2022-08-21T14:06:20;4.62;;;4.15;;
37141;SDS011;23041;49.816;20.092;2022-08-21T14:08:53;4.47;;;4.00;;
37141;SDS011;23041;49.816;20.092;2022-08-21T14:11:20;4.47;;;4.08;;
37141;SDS011;23041;49.816;20.092;2022-08-21T14:13:55;4.50;;;4.10;;
37141;SDS011;23041;49.816;20.092;2022-08-21T14:16:29;4.70;;;4.20;;
37141;SDS011;23041;49.816;20.092;2022-08-21T14:19:23;6.45;;;4.25;;
37141;SDS011;23041;49.816;20.092;2022-08-21T14:21:49;4.70;;;4.28;;
37141;SDS011;23041;49.816;20.092;2022-08-21T14:27:03;4.67;;;4.28;;
37141;SDS011;23041;49.816;20.092;2022-08-21T14:29:26;4.92;;;4.53;;
37141;SDS011;23041;49.816;20.092;2022-08-21T14:31:55;5.70;;;4.40;;
37141;SDS011;23041;49.816;20.092;2022-08-21T14:34:26;4.80;;;4.40;;
37141;SDS011;23041;49.816;20.092;2022-08-21T14:36:55;4.67;;;4.28;;
37141;SDS011;23041;49.816;20.092;2022-08-21T14:39:22;5.00;;;4.58;;
37141;SDS011;23041;49.816;20.092;2022-08-21T14:41:49;4.78;;;4.37;;
37141;SDS011;23041;49.816;20.092;2022-08-21T14:44:17;4.85;;;4.50;;
37141;SDS011;23041;49.816;20.092;2022-08-21T14:46:44;4.95;;;4.65;;
37141;SDS011;23041;49.816;20.092;2022-08-21T14:49:11;4.90;;;4.50;;
37141;SDS011;23041;49.816;20.092;2022-08-21T14:51:38;4.53;;;4.22;;
37141;SDS011;23041;49.816;20.092;2022-08-21T14:54:08;4.95;;;4.47;;
37141;SDS011;23041;49.816;20.092;2022-08-21T14:56:34;5.40;;;4.90;;
37141;SDS011;23041;49.816;20.092;2022-08-21T14:59:03;4.47;;;4.17;;
37141;SDS011;23041;49.816;20.092;2022-08-21T15:01:33;7.37;;;4.87;;
37141;SDS011;23041;49.816;20.092;2022-08-21T15:04:02;4.97;;;4.67;;
37141;SDS011;23041;49.816;20.092;2022-08-21T15:06:29;4.83;;;4.42;;
37141;SDS011;23041;49.816;20.092;2022-08-21T15:08:55;4.55;;;4.15;;
37141;SDS011;23041;49.816;20.092;2022-08-21T15:11:22;4.15;;;3.95;;
37141;SDS011;23041;49.816;20.092;2022-08-21T15:13:52;5.20;;;4.75;;
37141;SDS011;23041;49.816;20.092;2022-08-21T15:16:21;5.47;;;5.08;;
37141;SDS011;23041;49.816;20.092;2022-08-21T15:18:49;5.33;;;4.85;;
37141;SDS011;23041;49.816;20.092;2022-08-21T15:21:16;4.87;;;4.58;;
37141;SDS011;23041;49.816;20.092;2022-08-21T15:23:42;4.90;;;4.60;;
37141;SDS011;23041;49.816;20.092;2022-08-21T15:26:08;5.15;;;4.65;;
37141;SDS011;23041;49.816;20.092;2022-08-21T15:28:35;6.90;;;6.28;;
37141;SDS011;23041;49.816;20.092;2022-08-21T15:31:03;6.20;;;5.80;;
37141;SDS011;23041;49.816;20.092;2022-08-21T15:33:31;7.17;;;6.67;;
37141;SDS011;23041;49.816;20.092;2022-08-21T15:35:57;6.35;;;5.95;;
37141;SDS011;23041;49.816;20.092;2022-08-21T15:38:24;6.72;;;6.22;;
37141;SDS011;23041;49.816;20.092;2022-08-21T15:40:51;6.95;;;6.45;;
37141;SDS011;23041;49.816;20.092;2022-08-21T15:43:21;7.12;;;6.53;;
37141;SDS011;23041;49.816;20.092;2022-08-21T15:48:25;6.45;;;6.05;;
37141;SDS011;23041;49.816;20.092;2022-08-21T15:50:54;6.83;;;6.33;;
37141;SDS011;23041;49.816;20.092;2022-08-21T15:53:21;7.42;;;6.62;;
37141;SDS011;23041;49.816;20.092;2022-08-21T15:55:47;6.80;;;6.30;;
37141;SDS011;23041;49.816;20.092;2022-08-21T15:58:15;7.40;;;6.60;;
37141;SDS011;23041;49.816;20.092;2022-08-21T16:00:42;8.78;;;6.70;;
37141;SDS011;23041;49.816;20.092;2022-08-21T16:03:11;6.80;;;6.28;;
37141;SDS011;23041;49.816;20.092;2022-08-21T16:05:43;6.53;;;6.03;;